sensor_id;sensor_type;location;lat;lon;timestamp;temperature;humidity
32612;DHT22;19030;49.478;8.986;2022-11-20T00:00:44;3.30;99.90
32612;DHT22;19030;49.478;8.986;2022-11-20T00:02:44;3.30;99.90
32612;DHT22;19030;49.478;8.986;2022-11-20T00:04:45;3.30;99.90
32612;DHT22;19030;49.478;8.986;2022-11-20T00:06:46;3.30;99.90
32612;DHT22;19030;49.478;8.986;2022-11-20T00:08:47;3.30;99.90
32612;DHT22;19030;49.478;8.986;2022-11-20T00:10:48;3.30;99.90
32612;DHT22;19030;49.478;8.986;2022-11-20T00:12:48;3.30;99.90
32612;DHT22;19030;49.478;8.986;2022-11-20T00:14:49;3.20;99.90
32612;DHT22;19030;49.478;8.986;2022-11-20T00:16:50;3.20;99.90
32612;DHT22;19030;49.478;8.986;2022-11-20T00:18:51;3.10;99.90
32612;DHT22;19030;49.478;8.986;2022-11-20T00:20:51;3.20;99.90
32612;DHT22;19030;49.478;8.986;2022-11-20T00:22:52;3.20;99.90
32612;DHT22;19030;49.478;8.986;2022-11-20T00:24:53;3.20;99.90
32612;DHT22;19030;49.478;8.986;2022-11-20T00:26:53;3.20;99.90
32612;DHT22;19030;49.478;8.986;2022-11-20T00:28:57;3.10;99.90
32612;DHT22;19030;49.478;8.986;2022-11-20T00:31:34;3.10;99.90
32612;DHT22;19030;49.478;8.986;2022-11-20T00:33:28;3.10;99.90
32612;DHT22;19030;49.478;8.986;2022-11-20T00:35:29;3.10;99.90
32612;DHT22;19030;49.478;8.986;2022-11-20T00:37:30;3.10;99.90
32612;DHT22;19030;49.478;8.986;2022-11-20T00:39:30;3.10;99.90
32612;DHT22;19030;49.478;8.986;2022-11-20T00:41:31;3.20;99.90
32612;DHT22;19030;49.478;8.986;2022-11-20T00:43:32;3.20;99.90
32612;DHT22;19030;49.478;8.986;2022-11-20T00:45:32;3.20;99.90
32612;DHT22;19030;49.478;8.986;2022-11-20T00:47:33;3.20;99.90
32612;DHT22;19030;49.478;8.986;2022-11-20T00:49:34;3.10;99.90
32612;DHT22;19030;49.478;8.986;2022-11-20T00:51:35;3.20;99.90
32612;DHT22;19030;49.478;8.986;2022-11-20T00:53:36;3.20;99.90
32612;DHT22;19030;49.478;8.986;2022-11-20T00:55:36;3.20;99.90
32612;DHT22;19030;49.478;8.986;2022-11-20T00:57:37;3.20;99.90
32612;DHT22;19030;49.478;8.986;2022-11-20T00:59:37;3.20;99.90
32612;DHT22;19030;49.478;8.986;2022-11-20T01:01:38;3.20;99.90
32612;DHT22;19030;49.478;8.986;2022-11-20T01:03:41;3.20;99.90
32612;DHT22;19030;49.478;8.986;2022-11-20T01:05:42;3.20;99.90
32612;DHT22;19030;49.478;8.986;2022-11-20T01:07:42;3.20;99.90
32612;DHT22;19030;49.478;8.986;2022-11-20T01:09:43;3.20;99.90
32612;DHT22;19030;49.478;8.986;2022-11-20T01:11:44;3.20;99.90
32612;DHT22;19030;49.478;8.986;2022-11-20T01:13:47;3.30;99.90
32612;DHT22;19030;49.478;8.986;2022-11-20T01:15:47;3.20;99.90
32612;DHT22;19030;49.478;8.986;2022-11-20T01:17:48;3.30;99.90
32612;DHT22;19030;49.478;8.986;2022-11-20T01:19:52;3.30;99.90
32612;DHT22;19030;49.478;8.986;2022-11-20T01:21:54;3.30;99.90
32612;DHT22;19030;49.478;8.986;2022-11-20T01:23:54;3.30;99.90
32612;DHT22;19030;49.478;8.986;2022-11-20T01:25:55;3.30;99.90
32612;DHT22;19030;49.478;8.986;2022-11-20T01:27:56;3.30;99.90
32612;DHT22;19030;49.478;8.986;2022-11-20T01:29:56;3.30;99.90
32612;DHT22;19030;49.478;8.986;2022-11-20T01:31:57;3.30;99.90
32612;DHT22;19030;49.478;8.986;2022-11-20T01:34:00;3.20;99.90
32612;DHT22;19030;49.478;8.986;2022-11-20T01:36:05;3.20;99.90
32612;DHT22;19030;49.478;8.986;2022-11-20T01:38:06;3.20;99.90
32612;DHT22;19030;49.478;8.986;2022-11-20T01:40:07;3.20;99.90
32612;DHT22;19030;49.478;8.986;2022-11-20T01:42:07;3.20;99.90
32612;DHT22;19030;49.478;8.986;2022-11-20T01:44:56;3.20;99.90
32612;DHT22;19030;49.478;8.986;2022-11-20T01:47:00;3.20;99.90
32612;DHT22;19030;49.478;8.986;2022-11-20T01:49:19;3.20;99.90
32612;DHT22;19030;49.478;8.986;2022-11-20T01:52:03;3.20;99.90
32612;DHT22;19030;49.478;8.986;2022-11-20T01:54:09;3.30;99.90
32612;DHT22;19030;49.478;8.986;2022-11-20T01:56:12;3.30;99.90
32612;DHT22;19030;49.478;8.986;2022-11-20T01:58:14;3.30;99.90
32612;DHT22;19030;49.478;8.986;2022-11-20T02:00:17;3.30;99.90
32612;DHT22;19030;49.478;8.986;2022-11-20T02:02:18;3.20;99.90
32612;DHT22;19030;49.478;8.986;2022-11-20T02:04:20;3.20;99.90
32612;DHT22;19030;49.478;8.986;2022-11-20T02:06:27;3.20;99.90
32612;DHT22;19030;49.478;8.986;2022-11-20T02:08:29;3.20;99.90
32612;DHT22;19030;49.478;8.986;2022-11-20T02:10:31;3.20;99.90
32612;DHT22;19030;49.478;8.986;2022-11-20T02:12:32;3.20;99.90
32612;DHT22;19030;49.478;8.986;2022-11-20T02:14:51;3.20;99.90
32612;DHT22;19030;49.478;8.986;2022-11-20T02:16:54;3.20;99.90
32612;DHT22;19030;49.478;8.986;2022-11-20T02:18:57;3.20;99.90
32612;DHT22;19030;49.478;8.986;2022-11-20T02:21:27;3.20;99.90
32612;DHT22;19030;49.478;8.986;2022-11-20T02:23:36;3.30;99.90
32612;DHT22;19030;49.478;8.986;2022-11-20T02:25:40;3.30;99.90
32612;DHT22;19030;49.478;8.986;2022-11-20T02:27:41;3.30;99.90
32612;DHT22;19030;49.478;8.986;2022-11-20T02:30:00;3.30;99.90
32612;DHT22;19030;49.478;8.986;2022-11-20T02:32:02;3.20;99.90
32612;DHT22;19030;49.478;8.986;2022-11-20T02:34:02;3.20;99.90
32612;DHT22;19030;49.478;8.986;2022-11-20T02:36:03;3.20;99.90
32612;DHT22;19030;49.478;8.986;2022-11-20T02:38:04;3.30;99.90
32612;DHT22;19030;49.478;8.986;2022-11-20T02:40:05;3.30;99.90
32612;DHT22;19030;49.478;8.986;2022-11-20T02:42:06;3.30;99.90
32612;DHT22;19030;49.478;8.986;2022-11-20T02:44:07;3.30;99.90
32612;DHT22;19030;49.478;8.986;2022-11-20T02:46:08;3.30;99.90
32612;DHT22;19030;49.478;8.986;2022-11-20T02:48:08;3.30;99.90
32612;DHT22;19030;49.478;8.986;2022-11-20T02:50:09;3.30;99.90
32612;DHT22;19030;49.478;8.986;2022-11-20T02:52:10;3.40;99.90
32612;DHT22;19030;49.478;8.986;2022-11-20T02:54:11;3.40;99.90
32612;DHT22;19030;49.478;8.986;2022-11-20T02:56:11;3.40;99.90
32612;DHT22;19030;49.478;8.986;2022-11-20T02:58:12;3.40;99.90
32612;DHT22;19030;49.478;8.986;2022-11-20T03:00:13;3.40;99.90
32612;DHT22;19030;49.478;8.986;2022-11-20T03:02:14;3.40;99.90
32612;DHT22;19030;49.478;8.986;2022-11-20T03:04:14;3.40;99.90
32612;DHT22;19030;49.478;8.986;2022-11-20T03:06:16;3.40;99.90
32612;DHT22;19030;49.478;8.986;2022-11-20T03:08:17;3.40;99.90
32612;DHT22;19030;49.478;8.986;2022-11-20T03:10:17;3.40;99.90
32612;DHT22;19030;49.478;8.986;2022-11-20T03:12:18;3.40;99.90
32612;DHT22;19030;49.478;8.986;2022-11-20T03:14:18;3.40;99.90
32612;DHT22;19030;49.478;8.986;2022-11-20T03:16:21;3.40;99.90
32612;DHT22;19030;49.478;8.986;2022-11-20T03:18:21;3.40;99.90
32612;DHT22;19030;49.478;8.986;2022-11-20T03:20:22;3.40;99.90
32612;DHT22;19030;49.478;8.986;2022-11-20T03:22:23;3.40;99.90
32612;DHT22;19030;49.478;8.986;2022-11-20T03:24:24;3.40;99.90
32612;DHT22;19030;49.478;8.986;2022-11-20T03:26:25;3.40;99.90
32612;DHT22;19030;49.478;8.986;2022-11-20T03:28:26;3.40;99.90
32612;DHT22;19030;49.478;8.986;2022-11-20T03:30:27;3.40;99.90
32612;DHT22;19030;49.478;8.986;2022-11-20T03:32:28;3.40;99.90
32612;DHT22;19030;49.478;8.986;2022-11-20T03:34:28;3.40;99.90
32612;DHT22;19030;49.478;8.986;2022-11-20T03:36:29;3.40;99.90
32612;DHT22;19030;49.478;8.986;2022-11-20T03:38:30;3.40;99.90
32612;DHT22;19030;49.478;8.986;2022-11-20T03:40:33;3.30;99.90
32612;DHT22;19030;49.478;8.986;2022-11-20T03:42:34;3.30;99.90
32612;DHT22;19030;49.478;8.986;2022-11-20T03:44:47;3.30;99.90
32612;DHT22;19030;49.478;8.986;2022-11-20T03:46:47;3.30;99.90
32612;DHT22;19030;49.478;8.986;2022-11-20T03:48:48;3.30;99.90
32612;DHT22;19030;49.478;8.986;2022-11-20T03:50:49;3.30;99.90
32612;DHT22;19030;49.478;8.986;2022-11-20T03:52:49;3.30;99.90
32612;DHT22;19030;49.478;8.986;2022-11-20T03:54:50;3.30;99.90
32612;DHT22;19030;49.478;8.986;2022-11-20T03:56:50;3.40;99.90
32612;DHT22;19030;49.478;8.986;2022-11-20T03:58:51;3.40;99.90
32612;DHT22;19030;49.478;8.986;2022-11-20T04:00:51;3.40;99.90
32612;DHT22;19030;49.478;8.986;2022-11-20T04:02:52;3.40;99.90
32612;DHT22;19030;49.478;8.986;2022-11-20T04:04:52;3.40;99.90
32612;DHT22;19030;49.478;8.986;2022-11-20T04:06:53;3.40;99.90
32612;DHT22;19030;49.478;8.986;2022-11-20T04:08:54;3.40;99.90
32612;DHT22;19030;49.478;8.986;2022-11-20T04:10:55;3.40;99.90
32612;DHT22;19030;49.478;8.986;2022-11-20T04:12:56;3.40;99.90
32612;DHT22;19030;49.478;8.986;2022-11-20T04:14:56;3.40;99.90
32612;DHT22;19030;49.478;8.986;2022-11-20T04:16:57;3.40;99.90
32612;DHT22;19030;49.478;8.986;2022-11-20T04:18:59;3.50;99.90
32612;DHT22;19030;49.478;8.986;2022-11-20T04:21:01;3.50;99.90
32612;DHT22;19030;49.478;8.986;2022-11-20T04:23:01;3.50;99.90
32612;DHT22;19030;49.478;8.986;2022-11-20T04:25:02;3.50;99.90
32612;DHT22;19030;49.478;8.986;2022-11-20T04:27:02;3.50;99.90
32612;DHT22;19030;49.478;8.986;2022-11-20T04:29:03;3.50;99.90
32612;DHT22;19030;49.478;8.986;2022-11-20T04:31:10;3.60;99.90
32612;DHT22;19030;49.478;8.986;2022-11-20T04:33:12;3.60;99.90
32612;DHT22;19030;49.478;8.986;2022-11-20T04:35:12;3.60;99.90
32612;DHT22;19030;49.478;8.986;2022-11-20T04:37:13;3.60;99.90
32612;DHT22;19030;49.478;8.986;2022-11-20T04:39:14;3.60;99.90
32612;DHT22;19030;49.478;8.986;2022-11-20T04:41:20;3.50;99.90
32612;DHT22;19030;49.478;8.986;2022-11-20T04:43:20;3.60;99.90
32612;DHT22;19030;49.478;8.986;2022-11-20T04:45:22;3.60;99.90
32612;DHT22;19030;49.478;8.986;2022-11-20T04:47:23;3.60;99.90
32612;DHT22;19030;49.478;8.986;2022-11-20T04:49:23;3.60;99.90
32612;DHT22;19030;49.478;8.986;2022-11-20T04:51:24;3.70;99.90
32612;DHT22;19030;49.478;8.986;2022-11-20T04:53:25;3.70;99.90
32612;DHT22;19030;49.478;8.986;2022-11-20T04:55:25;3.70;99.90
32612;DHT22;19030;49.478;8.986;2022-11-20T04:57:26;3.70;99.90
32612;DHT22;19030;49.478;8.986;2022-11-20T04:59:26;3.70;99.90
32612;DHT22;19030;49.478;8.986;2022-11-20T05:01:27;3.70;99.90
32612;DHT22;19030;49.478;8.986;2022-11-20T05:03:27;3.70;99.90
32612;DHT22;19030;49.478;8.986;2022-11-20T05:05:28;3.70;99.90
32612;DHT22;19030;49.478;8.986;2022-11-20T05:07:29;3.70;99.90
32612;DHT22;19030;49.478;8.986;2022-11-20T05:09:30;3.70;99.90
32612;DHT22;19030;49.478;8.986;2022-11-20T05:11:31;3.70;99.90
32612;DHT22;19030;49.478;8.986;2022-11-20T05:13:32;3.70;99.90
32612;DHT22;19030;49.478;8.986;2022-11-20T05:15:32;3.80;99.90
32612;DHT22;19030;49.478;8.986;2022-11-20T05:17:33;3.70;99.90
32612;DHT22;19030;49.478;8.986;2022-11-20T05:19:34;3.70;99.90
32612;DHT22;19030;49.478;8.986;2022-11-20T05:21:34;3.70;99.90
32612;DHT22;19030;49.478;8.986;2022-11-20T05:23:35;3.80;99.90
32612;DHT22;19030;49.478;8.986;2022-11-20T05:25:36;3.70;99.90
32612;DHT22;19030;49.478;8.986;2022-11-20T05:27:37;3.70;99.90
32612;DHT22;19030;49.478;8.986;2022-11-20T05:29:37;3.80;99.90
32612;DHT22;19030;49.478;8.986;2022-11-20T05:31:40;3.70;99.90
32612;DHT22;19030;49.478;8.986;2022-11-20T05:33:42;3.80;99.90
32612;DHT22;19030;49.478;8.986;2022-11-20T05:35:43;3.80;99.90
32612;DHT22;19030;49.478;8.986;2022-11-20T05:37:44;3.80;99.90
32612;DHT22;19030;49.478;8.986;2022-11-20T05:39:44;3.80;99.90
32612;DHT22;19030;49.478;8.986;2022-11-20T05:41:45;3.70;99.90
32612;DHT22;19030;49.478;8.986;2022-11-20T05:43:47;3.80;99.90
32612;DHT22;19030;49.478;8.986;2022-11-20T05:45:54;3.80;99.90
32612;DHT22;19030;49.478;8.986;2022-11-20T05:47:58;3.80;99.90
32612;DHT22;19030;49.478;8.986;2022-11-20T05:50:00;3.80;99.90
32612;DHT22;19030;49.478;8.986;2022-11-20T05:52:01;3.80;99.90
32612;DHT22;19030;49.478;8.986;2022-11-20T05:54:01;3.80;99.90
32612;DHT22;19030;49.478;8.986;2022-11-20T05:56:07;3.80;99.90
32612;DHT22;19030;49.478;8.986;2022-11-20T05:58:10;3.80;99.90
32612;DHT22;19030;49.478;8.986;2022-11-20T06:00:11;3.80;99.90
32612;DHT22;19030;49.478;8.986;2022-11-20T06:02:11;3.80;99.90
32612;DHT22;19030;49.478;8.986;2022-11-20T06:04:12;3.80;99.90
32612;DHT22;19030;49.478;8.986;2022-11-20T06:06:14;3.80;99.90
32612;DHT22;19030;49.478;8.986;2022-11-20T06:08:15;3.90;99.90
32612;DHT22;19030;49.478;8.986;2022-11-20T06:10:16;3.90;99.90
32612;DHT22;19030;49.478;8.986;2022-11-20T06:12:16;3.90;99.90
32612;DHT22;19030;49.478;8.986;2022-11-20T06:14:17;3.80;99.90
32612;DHT22;19030;49.478;8.986;2022-11-20T06:16:19;3.90;99.90
32612;DHT22;19030;49.478;8.986;2022-11-20T06:18:20;3.90;99.90
32612;DHT22;19030;49.478;8.986;2022-11-20T06:20:22;3.90;99.90
32612;DHT22;19030;49.478;8.986;2022-11-20T06:22:22;3.90;99.90
32612;DHT22;19030;49.478;8.986;2022-11-20T06:24:23;3.80;99.90
32612;DHT22;19030;49.478;8.986;2022-11-20T06:26:26;3.90;99.90
32612;DHT22;19030;49.478;8.986;2022-11-20T06:28:27;3.90;99.90
32612;DHT22;19030;49.478;8.986;2022-11-20T06:30:28;3.90;99.90
32612;DHT22;19030;49.478;8.986;2022-11-20T06:32:28;3.90;99.90
32612;DHT22;19030;49.478;8.986;2022-11-20T06:34:29;3.90;99.90
32612;DHT22;19030;49.478;8.986;2022-11-20T06:36:30;3.90;99.90
32612;DHT22;19030;49.478;8.986;2022-11-20T06:38:30;4.00;99.90
32612;DHT22;19030;49.478;8.986;2022-11-20T06:40:31;4.00;99.90
32612;DHT22;19030;49.478;8.986;2022-11-20T06:42:32;4.00;99.90
32612;DHT22;19030;49.478;8.986;2022-11-20T06:44:32;4.00;99.90
32612;DHT22;19030;49.478;8.986;2022-11-20T06:46:33;4.00;99.90
32612;DHT22;19030;49.478;8.986;2022-11-20T06:48:34;4.00;99.90
32612;DHT22;19030;49.478;8.986;2022-11-20T06:50:36;4.00;99.90
32612;DHT22;19030;49.478;8.986;2022-11-20T06:52:36;4.00;99.90
32612;DHT22;19030;49.478;8.986;2022-11-20T06:54:37;4.00;99.90
32612;DHT22;19030;49.478;8.986;2022-11-20T06:56:37;4.10;99.90
32612;DHT22;19030;49.478;8.986;2022-11-20T06:58:38;4.10;99.90
32612;DHT22;19030;49.478;8.986;2022-11-20T07:00:39;4.10;99.90
32612;DHT22;19030;49.478;8.986;2022-11-20T07:02:40;4.10;99.90
32612;DHT22;19030;49.478;8.986;2022-11-20T07:04:41;4.10;99.90
32612;DHT22;19030;49.478;8.986;2022-11-20T07:06:42;4.10;99.90
32612;DHT22;19030;49.478;8.986;2022-11-20T07:08:42;4.20;99.90
32612;DHT22;19030;49.478;8.986;2022-11-20T07:10:43;4.20;99.90
32612;DHT22;19030;49.478;8.986;2022-11-20T07:12:49;4.20;99.90
32612;DHT22;19030;49.478;8.986;2022-11-20T07:14:50;4.10;99.90
32612;DHT22;19030;49.478;8.986;2022-11-20T07:16:51;4.10;99.90
32612;DHT22;19030;49.478;8.986;2022-11-20T07:18:51;4.10;99.90
32612;DHT22;19030;49.478;8.986;2022-11-20T07:20:52;4.20;99.90
32612;DHT22;19030;49.478;8.986;2022-11-20T07:22:54;4.20;99.90
32612;DHT22;19030;49.478;8.986;2022-11-20T07:24:55;4.20;99.90
32612;DHT22;19030;49.478;8.986;2022-11-20T07:26:56;4.20;99.90
32612;DHT22;19030;49.478;8.986;2022-11-20T07:28:56;4.20;99.90
32612;DHT22;19030;49.478;8.986;2022-11-20T07:30:57;4.20;99.90
32612;DHT22;19030;49.478;8.986;2022-11-20T07:32:58;4.20;99.90
32612;DHT22;19030;49.478;8.986;2022-11-20T07:34:58;4.30;99.90
32612;DHT22;19030;49.478;8.986;2022-11-20T07:36:59;4.30;99.90
32612;DHT22;19030;49.478;8.986;2022-11-20T07:38:59;4.30;99.90
32612;DHT22;19030;49.478;8.986;2022-11-20T07:41:00;4.30;99.90
32612;DHT22;19030;49.478;8.986;2022-11-20T07:43:03;4.30;99.90
32612;DHT22;19030;49.478;8.986;2022-11-20T07:45:04;4.40;99.90
32612;DHT22;19030;49.478;8.986;2022-11-20T07:47:05;4.40;99.90
32612;DHT22;19030;49.478;8.986;2022-11-20T07:49:05;4.40;99.90
32612;DHT22;19030;49.478;8.986;2022-11-20T07:51:06;4.40;99.90
32612;DHT22;19030;49.478;8.986;2022-11-20T07:53:06;4.40;99.90
32612;DHT22;19030;49.478;8.986;2022-11-20T07:55:08;4.40;99.90
32612;DHT22;19030;49.478;8.986;2022-11-20T07:57:09;4.50;99.90
32612;DHT22;19030;49.478;8.986;2022-11-20T07:59:09;4.50;99.90
32612;DHT22;19030;49.478;8.986;2022-11-20T08:01:12;4.50;99.90
32612;DHT22;19030;49.478;8.986;2022-11-20T08:03:12;4.60;99.90
32612;DHT22;19030;49.478;8.986;2022-11-20T08:05:13;4.60;99.90
32612;DHT22;19030;49.478;8.986;2022-11-20T08:07:14;4.60;99.90
32612;DHT22;19030;49.478;8.986;2022-11-20T08:09:14;4.60;99.90
32612;DHT22;19030;49.478;8.986;2022-11-20T08:11:15;4.60;99.90
32612;DHT22;19030;49.478;8.986;2022-11-20T08:13:34;4.70;99.90
32612;DHT22;19030;49.478;8.986;2022-11-20T08:15:53;4.70;99.90
32612;DHT22;19030;49.478;8.986;2022-11-20T08:18:09;4.70;99.90
32612;DHT22;19030;49.478;8.986;2022-11-20T08:20:11;4.70;99.90
32612;DHT22;19030;49.478;8.986;2022-11-20T08:22:11;4.70;99.90
32612;DHT22;19030;49.478;8.986;2022-11-20T08:24:12;4.80;99.90
32612;DHT22;19030;49.478;8.986;2022-11-20T08:26:13;4.80;99.90
32612;DHT22;19030;49.478;8.986;2022-11-20T08:28:13;4.80;99.90
32612;DHT22;19030;49.478;8.986;2022-11-20T08:30:14;4.90;99.90
32612;DHT22;19030;49.478;8.986;2022-11-20T08:32:14;4.90;99.90
32612;DHT22;19030;49.478;8.986;2022-11-20T08:34:15;4.90;99.90
32612;DHT22;19030;49.478;8.986;2022-11-20T08:36:16;4.90;99.90
32612;DHT22;19030;49.478;8.986;2022-11-20T08:38:16;5.00;99.90
32612;DHT22;19030;49.478;8.986;2022-11-20T08:40:17;5.00;99.90
32612;DHT22;19030;49.478;8.986;2022-11-20T08:42:17;5.00;99.90
32612;DHT22;19030;49.478;8.986;2022-11-20T08:44:18;5.10;99.90
32612;DHT22;19030;49.478;8.986;2022-11-20T08:46:19;5.20;99.90
32612;DHT22;19030;49.478;8.986;2022-11-20T08:48:19;5.30;99.90
32612;DHT22;19030;49.478;8.986;2022-11-20T08:50:20;5.40;99.90
32612;DHT22;19030;49.478;8.986;2022-11-20T08:52:20;5.40;99.90
32612;DHT22;19030;49.478;8.986;2022-11-20T08:54:21;5.50;99.90
32612;DHT22;19030;49.478;8.986;2022-11-20T08:56:23;5.50;99.90
32612;DHT22;19030;49.478;8.986;2022-11-20T08:58:24;5.60;99.90
32612;DHT22;19030;49.478;8.986;2022-11-20T09:00:25;5.70;99.90
32612;DHT22;19030;49.478;8.986;2022-11-20T09:02:26;5.70;99.90
32612;DHT22;19030;49.478;8.986;2022-11-20T09:04:27;5.70;99.90
32612;DHT22;19030;49.478;8.986;2022-11-20T09:06:27;5.70;99.90
32612;DHT22;19030;49.478;8.986;2022-11-20T09:08:28;5.80;99.90
32612;DHT22;19030;49.478;8.986;2022-11-20T09:10:29;5.80;99.90
32612;DHT22;19030;49.478;8.986;2022-11-20T09:12:29;5.80;99.90
32612;DHT22;19030;49.478;8.986;2022-11-20T09:14:30;5.80;99.90
32612;DHT22;19030;49.478;8.986;2022-11-20T09:16:31;5.90;99.90
32612;DHT22;19030;49.478;8.986;2022-11-20T09:18:31;5.90;99.90
32612;DHT22;19030;49.478;8.986;2022-11-20T09:20:32;5.90;99.90
32612;DHT22;19030;49.478;8.986;2022-11-20T09:22:33;6.00;99.90
32612;DHT22;19030;49.478;8.986;2022-11-20T09:24:33;6.00;99.90
32612;DHT22;19030;49.478;8.986;2022-11-20T09:26:34;6.10;99.90
32612;DHT22;19030;49.478;8.986;2022-11-20T09:28:35;6.10;99.90
32612;DHT22;19030;49.478;8.986;2022-11-20T09:30:35;6.10;99.90
32612;DHT22;19030;49.478;8.986;2022-11-20T09:32:36;6.20;99.90
32612;DHT22;19030;49.478;8.986;2022-11-20T09:34:39;6.20;99.90
32612;DHT22;19030;49.478;8.986;2022-11-20T09:36:39;6.20;99.90
32612;DHT22;19030;49.478;8.986;2022-11-20T09:38:40;6.30;99.90
32612;DHT22;19030;49.478;8.986;2022-11-20T09:40:47;6.30;99.90
32612;DHT22;19030;49.478;8.986;2022-11-20T09:42:57;6.30;99.90
32612;DHT22;19030;49.478;8.986;2022-11-20T09:45:23;6.30;99.90
32612;DHT22;19030;49.478;8.986;2022-11-20T09:50:15;6.40;99.90
32612;DHT22;19030;49.478;8.986;2022-11-20T09:52:41;6.40;99.90
32612;DHT22;19030;49.478;8.986;2022-11-20T09:54:45;6.40;99.90
32612;DHT22;19030;49.478;8.986;2022-11-20T09:56:55;6.50;99.90
32612;DHT22;19030;49.478;8.986;2022-11-20T09:59:04;6.50;99.90
32612;DHT22;19030;49.478;8.986;2022-11-20T10:01:17;6.50;99.90
32612;DHT22;19030;49.478;8.986;2022-11-20T10:03:26;6.50;99.90
32612;DHT22;19030;49.478;8.986;2022-11-20T10:05:47;6.50;99.90
32612;DHT22;19030;49.478;8.986;2022-11-20T10:10:04;6.60;99.90
32612;DHT22;19030;49.478;8.986;2022-11-20T10:12:19;6.60;99.90
32612;DHT22;19030;49.478;8.986;2022-11-20T10:14:50;6.60;99.90
32612;DHT22;19030;49.478;8.986;2022-11-20T10:19:44;6.70;99.90
32612;DHT22;19030;49.478;8.986;2022-11-20T10:28:59;7.00;99.90
32612;DHT22;19030;49.478;8.986;2022-11-20T10:31:09;7.10;99.90
32612;DHT22;19030;49.478;8.986;2022-11-20T10:33:22;7.20;99.90
32612;DHT22;19030;49.478;8.986;2022-11-20T10:35:34;7.10;99.90
32612;DHT22;19030;49.478;8.986;2022-11-20T10:37:38;7.20;99.90
32612;DHT22;19030;49.478;8.986;2022-11-20T10:42:20;7.20;99.90
32612;DHT22;19030;49.478;8.986;2022-11-20T10:44:28;7.20;99.90
32612;DHT22;19030;49.478;8.986;2022-11-20T10:46:48;7.20;99.90
32612;DHT22;19030;49.478;8.986;2022-11-20T10:48:49;7.20;99.90
32612;DHT22;19030;49.478;8.986;2022-11-20T11:00:08;7.20;99.90
32612;DHT22;19030;49.478;8.986;2022-11-20T11:02:23;7.20;99.90
32612;DHT22;19030;49.478;8.986;2022-11-20T11:06:45;7.20;99.90
32612;DHT22;19030;49.478;8.986;2022-11-20T11:08:47;7.20;99.90
32612;DHT22;19030;49.478;8.986;2022-11-20T11:10:54;7.30;99.90
32612;DHT22;19030;49.478;8.986;2022-11-20T11:12:56;7.40;99.90
32612;DHT22;19030;49.478;8.986;2022-11-20T11:14:57;7.40;99.90
32612;DHT22;19030;49.478;8.986;2022-11-20T11:16:58;7.50;99.90
32612;DHT22;19030;49.478;8.986;2022-11-20T11:19:14;7.60;99.90
32612;DHT22;19030;49.478;8.986;2022-11-20T11:21:24;7.70;99.90
32612;DHT22;19030;49.478;8.986;2022-11-20T11:25:35;7.70;99.90
32612;DHT22;19030;49.478;8.986;2022-11-20T11:27:48;7.70;99.90
32612;DHT22;19030;49.478;8.986;2022-11-20T11:29:49;7.80;99.90
32612;DHT22;19030;49.478;8.986;2022-11-20T11:31:50;7.90;99.90
32612;DHT22;19030;49.478;8.986;2022-11-20T11:33:50;7.90;99.90
32612;DHT22;19030;49.478;8.986;2022-11-20T11:35:53;7.90;99.90
32612;DHT22;19030;49.478;8.986;2022-11-20T11:38:02;7.90;99.90
32612;DHT22;19030;49.478;8.986;2022-11-20T11:40:05;8.00;99.90
32612;DHT22;19030;49.478;8.986;2022-11-20T11:42:13;8.00;99.90
32612;DHT22;19030;49.478;8.986;2022-11-20T11:44:24;8.00;99.90
32612;DHT22;19030;49.478;8.986;2022-11-20T11:46:53;7.90;99.90
32612;DHT22;19030;49.478;8.986;2022-11-20T11:51:08;7.90;99.90
32612;DHT22;19030;49.478;8.986;2022-11-20T11:53:13;7.80;99.90
32612;DHT22;19030;49.478;8.986;2022-11-20T11:55:30;7.80;99.90
32612;DHT22;19030;49.478;8.986;2022-11-20T12:02:00;7.80;99.90
32612;DHT22;19030;49.478;8.986;2022-11-20T12:04:36;7.80;99.90
32612;DHT22;19030;49.478;8.986;2022-11-20T12:06:39;7.80;99.90
32612;DHT22;19030;49.478;8.986;2022-11-20T12:08:49;7.80;99.90
32612;DHT22;19030;49.478;8.986;2022-11-20T12:10:59;7.90;99.90
32612;DHT22;19030;49.478;8.986;2022-11-20T12:13:08;8.10;99.90
32612;DHT22;19030;49.478;8.986;2022-11-20T12:15:11;8.30;99.90
32612;DHT22;19030;49.478;8.986;2022-11-20T12:17:14;8.50;99.90
32612;DHT22;19030;49.478;8.986;2022-11-20T12:19:14;8.60;99.90
32612;DHT22;19030;49.478;8.986;2022-11-20T12:23:31;8.80;99.90
32612;DHT22;19030;49.478;8.986;2022-11-20T12:25:36;8.90;99.90
32612;DHT22;19030;49.478;8.986;2022-11-20T12:30:09;9.00;99.90
32612;DHT22;19030;49.478;8.986;2022-11-20T12:32:25;9.20;99.90
32612;DHT22;19030;49.478;8.986;2022-11-20T12:36:41;9.20;99.90
32612;DHT22;19030;49.478;8.986;2022-11-20T12:47:15;9.20;99.90
32612;DHT22;19030;49.478;8.986;2022-11-20T12:54:10;9.40;99.90
32612;DHT22;19030;49.478;8.986;2022-11-20T12:56:37;9.40;99.90
32612;DHT22;19030;49.478;8.986;2022-11-20T13:01:23;9.40;99.90
32612;DHT22;19030;49.478;8.986;2022-11-20T13:03:48;9.40;99.90
32612;DHT22;19030;49.478;8.986;2022-11-20T13:06:11;9.40;99.90
32612;DHT22;19030;49.478;8.986;2022-11-20T13:08:23;9.30;99.90
32612;DHT22;19030;49.478;8.986;2022-11-20T13:10:43;9.30;99.90
32612;DHT22;19030;49.478;8.986;2022-11-20T13:13:00;9.30;99.90
32612;DHT22;19030;49.478;8.986;2022-11-20T13:15:23;9.20;99.90
32612;DHT22;19030;49.478;8.986;2022-11-20T13:17:43;9.20;99.90
32612;DHT22;19030;49.478;8.986;2022-11-20T13:20:06;9.10;99.90
32612;DHT22;19030;49.478;8.986;2022-11-20T13:22:12;9.00;99.90
32612;DHT22;19030;49.478;8.986;2022-11-20T13:26:22;8.80;99.90
32612;DHT22;19030;49.478;8.986;2022-11-20T13:30:25;8.60;99.90
32612;DHT22;19030;49.478;8.986;2022-11-20T13:32:26;8.60;99.90
32612;DHT22;19030;49.478;8.986;2022-11-20T13:34:32;8.50;99.90
32612;DHT22;19030;49.478;8.986;2022-11-20T13:36:33;8.50;99.90
32612;DHT22;19030;49.478;8.986;2022-11-20T13:38:53;8.50;99.90
32612;DHT22;19030;49.478;8.986;2022-11-20T13:40:59;8.50;99.90
32612;DHT22;19030;49.478;8.986;2022-11-20T13:45:32;8.60;99.90
32612;DHT22;19030;49.478;8.986;2022-11-20T13:47:33;8.70;99.90
32612;DHT22;19030;49.478;8.986;2022-11-20T13:49:39;8.80;99.90
32612;DHT22;19030;49.478;8.986;2022-11-20T13:51:47;8.90;99.90
32612;DHT22;19030;49.478;8.986;2022-11-20T13:56:04;9.20;99.90
32612;DHT22;19030;49.478;8.986;2022-11-20T14:00:25;9.60;99.90
32612;DHT22;19030;49.478;8.986;2022-11-20T14:02:27;9.80;99.90
32612;DHT22;19030;49.478;8.986;2022-11-20T14:04:42;9.90;99.90
32612;DHT22;19030;49.478;8.986;2022-11-20T14:06:45;9.90;99.90
32612;DHT22;19030;49.478;8.986;2022-11-20T14:08:48;9.90;99.90
32612;DHT22;19030;49.478;8.986;2022-11-20T14:10:49;10.00;99.90
32612;DHT22;19030;49.478;8.986;2022-11-20T14:12:50;10.10;99.90
32612;DHT22;19030;49.478;8.986;2022-11-20T14:14:53;10.30;99.90
32612;DHT22;19030;49.478;8.986;2022-11-20T14:21:27;10.30;99.90
32612;DHT22;19030;49.478;8.986;2022-11-20T14:23:28;10.10;99.90
32612;DHT22;19030;49.478;8.986;2022-11-20T14:25:29;10.00;99.90
32612;DHT22;19030;49.478;8.986;2022-11-20T14:27:34;9.80;99.90
32612;DHT22;19030;49.478;8.986;2022-11-20T14:29:37;9.60;99.90